Time;durP1;ratioP1;P1;durP2;ratioP2;P2;SDS_P1;SDS_P2;PMS_P1;PMS_P2;Temp;Humidity;BMP_temperature;BMP_pressure;BME280_temperature;BME280_humidity;BME280_pressure;Samples;Min_cycle;Max_cycle;Signal;HPM_P1;HPM_P2
2023/04/28 00:01:15;;;;;;;70.50;32.35;;;2.60;99.90;;;;;;5095995;28;20046;-77
2023/04/28 00:03:41;;;;;;;72.00;33.22;;;2.60;99.90;;;;;;5097066;28;20471;-77
2023/04/28 00:06:07;;;;;;;56.00;25.92;;;2.60;99.90;;;;;;5097304;28;20385;-77
2023/04/28 00:08:33;;;;;;;44.55;23.23;;;2.60;99.90;;;;;;5096144;28;20059;-77
2023/04/28 00:10:59;;;;;;;50.67;25.83;;;2.50;99.90;;;;;;5095838;28;20016;-77
2023/04/28 00:13:25;;;;;;;55.08;26.25;;;2.60;99.90;;;;;;5097097;28;20400;-77
2023/04/28 00:15:54;;;;;;;58.08;30.05;;;2.70;99.90;;;;;;5096865;28;20017;-77
2023/04/28 00:18:20;;;;;;;60.15;28.73;;;2.70;99.90;;;;;;5097025;28;20048;-77
2023/04/28 00:20:46;;;;;;;61.47;29.60;;;2.80;99.90;;;;;;5095726;28;20473;-77
2023/04/28 00:23:12;;;;;;;52.65;26.58;;;2.80;99.90;;;;;;5095422;28;20493;-77
2023/04/28 00:25:38;;;;;;;40.75;19.27;;;2.80;99.90;;;;;;5096838;28;20012;-76
2023/04/28 00:28:03;;;;;;;39.65;19.88;;;2.90;99.90;;;;;;5096819;28;20043;-76
2023/04/28 00:30:30;;;;;;;30.67;17.40;;;2.90;99.90;;;;;;5096671;28;20028;-77
2023/04/28 00:32:56;;;;;;;35.28;17.60;;;2.90;99.90;;;;;;5096480;28;20043;-77
2023/04/28 00:35:22;;;;;;;35.38;17.50;;;3.00;99.90;;;;;;5096777;28;20095;-77
2023/04/28 00:37:47;;;;;;;49.97;23.88;;;3.00;99.90;;;;;;5095383;28;20026;-78
2023/04/28 00:40:13;;;;;;;50.50;25.80;;;3.00;99.90;;;;;;5096654;28;20016;-77
2023/04/28 00:42:39;;;;;;;55.58;26.75;;;3.00;99.90;;;;;;5095077;28;20032;-77
2023/04/28 00:45:06;;;;;;;50.58;30.27;;;2.90;99.90;;;;;;5096552;28;20358;-77
2023/04/28 00:47:36;;;;;;;49.97;26.63;;;2.90;99.90;;;;;;5095054;28;20059;-77
2023/04/28 00:50:02;;;;;;;51.10;28.20;;;2.90;99.90;;;;;;5095099;28;20410;-77
2023/04/28 00:52:28;;;;;;;51.33;28.00;;;3.00;99.90;;;;;;5096233;28;20027;-77
2023/04/28 00:54:55;;;;;;;52.88;27.00;;;2.90;99.90;;;;;;5094877;28;20032;-77
2023/04/28 00:57:22;;;;;;;50.60;26.13;;;3.00;99.90;;;;;;5096569;28;20032;-76
2023/04/28 00:59:47;;;;;;;45.95;21.88;;;3.00;99.90;;;;;;5096059;28;20034;-77
2023/04/28 01:02:16;;;;;;;41.72;22.00;;;3.00;99.90;;;;;;5095822;28;20036;-77
2023/04/28 01:04:43;;;;;;;32.30;18.45;;;3.00;99.90;;;;;;5095944;28;20019;-77
2023/04/28 01:07:09;;;;;;;26.02;14.98;;;3.00;99.90;;;;;;5094284;28;20496;-77
2023/04/28 01:09:34;;;;;;;23.15;14.13;;;3.10;99.90;;;;;;5095625;28;20030;-77
2023/04/28 01:12:00;;;;;;;27.92;16.80;;;3.10;99.90;;;;;;5095837;28;20020;-77
2023/04/28 01:14:26;;;;;;;40.42;22.00;;;3.10;99.90;;;;;;5096019;28;20020;-77
2023/04/28 01:16:52;;;;;;;44.88;23.33;;;3.10;99.90;;;;;;5095860;28;20024;-77
2023/04/28 01:19:22;;;;;;;40.47;21.98;;;3.00;99.90;;;;;;5095878;28;20095;-77
2023/04/28 01:21:48;;;;;;;50.33;24.25;;;3.00;99.90;;;;;;5094342;28;20028;-77
2023/04/28 01:24:14;;;;;;;45.45;22.60;;;2.90;99.90;;;;;;5094452;28;20032;-77
2023/04/28 01:26:40;;;;;;;47.65;26.17;;;2.90;99.90;;;;;;5094143;28;20023;-76
2023/04/28 01:29:05;;;;;;;47.97;23.90;;;2.90;99.90;;;;;;5094475;28;20031;-76
2023/04/28 01:31:31;;;;;;;51.58;27.38;;;2.80;99.90;;;;;;5095860;28;20081;-77
2023/04/28 01:33:57;;;;;;;46.50;24.30;;;2.80;99.90;;;;;;5095353;28;20090;-76
2023/04/28 01:36:23;;;;;;;41.95;23.23;;;2.80;99.90;;;;;;5095527;28;20020;-77
2023/04/28 01:38:49;;;;;;;42.60;23.55;;;2.90;99.90;;;;;;5079400;28;20028;-77
2023/04/28 01:41:15;;;;;;;45.90;24.55;;;2.90;99.90;;;;;;5075167;28;20154;-77
2023/04/28 01:43:42;;;;;;;47.38;23.98;;;2.90;99.90;;;;;;5073598;28;20499;-76
2023/04/28 01:46:08;;;;;;;42.22;23.13;;;2.90;99.90;;;;;;5075097;28;20123;-77
2023/04/28 01:48:34;;;;;;;52.22;27.70;;;2.90;99.90;;;;;;5073773;28;20067;-77
2023/04/28 01:51:00;;;;;;;44.25;24.52;;;2.90;99.90;;;;;;5074916;28;20024;-76
2023/04/28 01:53:25;;;;;;;45.08;24.90;;;2.90;99.90;;;;;;5074858;28;20024;-77
2023/04/28 01:55:52;;;;;;;39.20;23.15;;;2.90;99.90;;;;;;5074826;28;20021;-77
2023/04/28 01:58:17;;;;;;;38.15;22.77;;;2.90;99.90;;;;;;5074859;28;20017;-76
2023/04/28 02:00:43;;;;;;;45.13;22.55;;;3.00;99.90;;;;;;5073405;28;20085;-76
2023/04/28 02:03:08;;;;;;;45.03;23.65;;;3.00;99.90;;;;;;5074591;28;20036;-77
2023/04/28 02:05:34;;;;;;;38.00;20.85;;;2.90;99.90;;;;;;5073329;28;20202;-77
2023/04/28 02:08:00;;;;;;;36.58;19.92;;;2.90;99.90;;;;;;5074568;28;20024;-78
2023/04/28 02:10:25;;;;;;;38.15;22.02;;;2.90;99.90;;;;;;5073278;28;20024;-76
2023/04/28 02:12:51;;;;;;;30.38;17.48;;;2.90;99.90;;;;;;5074512;28;20413;-77
2023/04/28 02:15:16;;;;;;;31.83;18.00;;;2.80;99.90;;;;;;5074585;28;20099;-77
2023/04/28 02:17:42;;;;;;;28.10;16.60;;;2.80;99.90;;;;;;5074422;28;20025;-77
2023/04/28 02:20:08;;;;;;;32.75;19.83;;;2.90;99.90;;;;;;5073487;28;20478;-77
2023/04/28 02:22:34;;;;;;;27.73;15.68;;;2.80;99.90;;;;;;5074062;28;20041;-76
2023/04/28 02:24:59;;;;;;;22.40;13.07;;;2.90;99.90;;;;;;5074407;28;20027;-77
2023/04/28 02:27:25;;;;;;;20.45;12.23;;;2.90;99.90;;;;;;5072966;28;20028;-77
2023/04/28 02:29:51;;;;;;;22.77;11.68;;;2.90;99.90;;;;;;5074226;28;20062;-77
2023/04/28 02:32:17;;;;;;;23.88;12.77;;;2.80;99.90;;;;;;5074266;28;20021;-77
2023/04/28 02:34:42;;;;;;;24.80;15.48;;;2.80;99.90;;;;;;5073735;28;20552;-78
2023/04/28 02:37:08;;;;;;;22.23;14.05;;;2.80;99.90;;;;;;5072976;28;20025;-77
2023/04/28 02:39:33;;;;;;;24.63;14.02;;;2.80;99.90;;;;;;5072782;28;20079;-77
2023/04/28 02:41:59;;;;;;;29.35;14.85;;;2.80;99.90;;;;;;5072582;28;20017;-78
2023/04/28 02:44:25;;;;;;;26.27;14.68;;;2.80;99.90;;;;;;5073864;28;20051;-78
2023/04/28 02:46:50;;;;;;;37.15;22.50;;;2.80;99.90;;;;;;5073833;28;20020;-78
2023/04/28 02:49:16;;;;;;;41.13;24.08;;;2.60;99.90;;;;;;5072580;28;20028;-76
2023/04/28 02:51:41;;;;;;;80.18;45.15;;;2.60;99.90;;;;;;5073745;28;20385;-77
2023/04/28 02:54:07;;;;;;;44.75;27.15;;;2.50;99.90;;;;;;5073790;28;20031;-76
2023/04/28 02:56:34;;;;;;;35.75;20.60;;;2.50;99.90;;;;;;5073750;28;20025;-76
2023/04/28 02:58:59;;;;;;;46.53;26.48;;;2.50;99.90;;;;;;5072414;28;20466;-76
2023/04/28 03:01:25;;;;;;;67.68;36.97;;;2.40;99.90;;;;;;5073620;28;20021;-77
2023/04/28 03:03:51;;;;;;;57.40;31.20;;;2.40;99.90;;;;;;5072250;28;20058;-77
2023/04/28 03:06:16;;;;;;;38.85;20.70;;;2.40;99.90;;;;;;5073571;28;20047;-77
2023/04/28 03:08:42;;;;;;;35.22;18.45;;;2.40;99.90;;;;;;5072235;28;20024;-77
2023/04/28 03:11:07;;;;;;;32.30;17.48;;;2.30;99.90;;;;;;5072377;28;20055;-77
2023/04/28 03:13:34;;;;;;;29.38;15.95;;;2.30;99.90;;;;;;5072153;28;20017;-77
2023/04/28 03:16:00;;;;;;;20.50;11.88;;;2.30;99.90;;;;;;5073402;28;20051;-77
2023/04/28 03:18:26;;;;;;;19.15;11.35;;;2.30;99.90;;;;;;5073535;28;20024;-77
2023/04/28 03:20:51;;;;;;;18.13;9.77;;;2.20;99.90;;;;;;5073402;28;20046;-77
2023/04/28 03:23:17;;;;;;;16.13;10.90;;;2.20;99.90;;;;;;5072221;28;20398;-77
2023/04/28 03:25:42;;;;;;;14.93;10.98;;;2.20;99.90;;;;;;5072072;28;20031;-76
2023/04/28 03:28:09;;;;;;;30.90;20.38;;;2.10;99.90;;;;;;5073436;28;20035;-77
2023/04/28 03:30:35;;;;;;;25.27;15.57;;;2.00;99.90;;;;;;5071942;28;20025;-78
2023/04/28 03:33:00;;;;;;;19.90;11.38;;;2.00;99.90;;;;;;5071883;28;20401;-78
2023/04/28 03:35:26;;;;;;;14.27;10.45;;;1.90;99.90;;;;;;5072057;28;20100;-77
2023/04/28 03:37:52;;;;;;;23.40;14.60;;;1.80;99.90;;;;;;5073263;28;20044;-76
2023/04/28 03:40:18;;;;;;;21.70;11.93;;;1.90;99.90;;;;;;5071921;28;20047;-78
2023/04/28 03:42:43;;;;;;;14.43;10.73;;;1.80;99.90;;;;;;5071899;28;20029;-76
2023/04/28 03:45:09;;;;;;;19.67;9.77;;;1.80;99.90;;;;;;5073246;28;20064;-76
2023/04/28 03:47:35;;;;;;;15.35;9.75;;;1.80;99.90;;;;;;5073116;28;20382;-76
2023/04/28 03:50:01;;;;;;;13.65;8.75;;;1.80;99.90;;;;;;5071885;28;20028;-76
2023/04/28 03:52:27;;;;;;;14.65;8.63;;;1.80;99.90;;;;;;5071758;28;20028;-77
2023/04/28 03:54:52;;;;;;;15.40;8.82;;;1.80;99.90;;;;;;5071750;28;20518;-77
2023/04/28 03:57:18;;;;;;;12.20;8.20;;;1.80;99.90;;;;;;5071793;28;20017;-77
2023/04/28 03:59:43;;;;;;;12.57;8.35;;;1.80;99.90;;;;;;5073003;28;20067;-77
2023/04/28 04:02:09;;;;;;;14.32;8.98;;;1.70;99.90;;;;;;5072846;28;20024;-78
2023/04/28 04:04:34;;;;;;;17.70;9.85;;;1.70;99.90;;;;;;5071790;28;20043;-77
2023/04/28 04:07:01;;;;;;;17.83;9.70;;;1.80;99.90;;;;;;5071639;28;20025;-78
2023/04/28 04:09:26;;;;;;;16.77;9.30;;;1.80;99.90;;;;;;5073063;28;20047;-77
2023/04/28 04:11:52;;;;;;;12.70;7.95;;;2.00;99.90;;;;;;5072838;28;20410;-77
2023/04/28 04:14:17;;;;;;;13.13;9.07;;;2.10;99.90;;;;;;5071838;28;20024;-77
2023/04/28 04:16:43;;;;;;;14.55;9.00;;;2.20;99.90;;;;;;5071589;28;20025;-77
2023/04/28 04:19:08;;;;;;;15.73;8.02;;;2.40;99.90;;;;;;5071632;28;20025;-78
2023/04/28 04:21:34;;;;;;;17.02;8.60;;;2.50;99.90;;;;;;5072244;28;20020;-77
2023/04/28 04:24:00;;;;;;;17.02;9.35;;;2.70;99.90;;;;;;5071271;28;20486;-77
2023/04/28 04:26:26;;;;;;;14.30;7.97;;;2.80;99.90;;;;;;5071365;28;20048;-77
2023/04/28 04:28:51;;;;;;;23.80;9.48;;;3.00;99.90;;;;;;5071212;28;20024;-78
2023/04/28 04:31:18;;;;;;;11.85;8.10;;;3.20;99.90;;;;;;5072651;28;20028;-77
2023/04/28 04:33:44;;;;;;;14.75;9.07;;;3.30;99.90;;;;;;5072257;28;20041;-77
2023/04/28 04:36:10;;;;;;;13.65;8.48;;;3.40;99.90;;;;;;5072362;28;20024;-78
2023/04/28 04:38:36;;;;;;;17.58;9.73;;;3.60;99.90;;;;;;5071901;28;20037;-78
2023/04/28 04:41:01;;;;;;;14.48;9.07;;;3.70;97.20;;;;;;5070581;28;20378;-77
2023/04/28 04:43:27;;;;;;;15.45;9.40;;;3.80;92.80;;;;;;5072242;28;20041;-77
2023/04/28 04:45:53;;;;;;;16.90;9.07;;;3.90;89.90;;;;;;5074608;28;20386;-77
2023/04/28 04:48:18;;;;;;;15.93;8.82;;;4.10;88.40;;;;;;5074438;28;20056;-77
2023/04/28 04:50:44;;;;;;;16.38;9.45;;;4.20;84.90;;;;;;5074571;28;20409;-77
2023/04/28 04:53:10;;;;;;;16.15;9.20;;;4.30;83.80;;;;;;5074486;28;20385;-77
2023/04/28 04:55:35;;;;;;;16.38;9.73;;;4.40;81.60;;;;;;5075956;28;20432;-77
2023/04/28 04:58:01;;;;;;;14.10;8.23;;;4.50;81.70;;;;;;5075414;28;20021;-78
2023/04/28 05:00:27;;;;;;;13.77;9.32;;;4.70;81.00;;;;;;5075315;28;20032;-77
2023/04/28 05:02:52;;;;;;;17.55;10.05;;;4.80;80.00;;;;;;5073845;28;20032;-77
2023/04/28 05:05:18;;;;;;;15.38;9.75;;;4.90;78.30;;;;;;5088920;28;20060;-78
2023/04/28 05:07:43;;;;;;;19.30;9.20;;;5.10;77.90;;;;;;5096025;28;20020;-78
2023/04/28 05:10:10;;;;;;;14.68;9.02;;;5.30;77.10;;;;;;5094726;28;20017;-78
2023/04/28 05:12:37;;;;;;;20.35;9.13;;;5.50;76.80;;;;;;5095854;28;20077;-77
2023/04/28 05:15:06;;;;;;;15.15;10.13;;;5.70;74.90;;;;;;5077636;28;20052;-78
2023/04/28 05:17:32;;;;;;;18.23;10.25;;;5.90;74.00;;;;;;5074365;28;20063;-77
2023/04/28 05:19:58;;;;;;;19.08;10.90;;;6.10;72.00;;;;;;5075518;28;20016;-77
2023/04/28 05:22:25;;;;;;;18.10;10.50;;;6.20;71.90;;;;;;5075407;28;20073;-77
2023/04/28 05:24:50;;;;;;;13.65;9.48;;;6.40;72.20;;;;;;5075429;28;20052;-77
2023/04/28 05:27:18;;;;;;;18.45;10.10;;;6.50;71.40;;;;;;5075329;28;20504;-77
2023/04/28 05:29:43;;;;;;;17.70;9.25;;;6.50;71.00;;;;;;5075179;28;20025;-77
2023/04/28 05:32:09;;;;;;;17.15;9.75;;;6.60;70.60;;;;;;5057895;28;20040;-77
2023/04/28 05:34:35;;;;;;;16.08;10.02;;;6.70;70.90;;;;;;5074647;28;20150;-77
2023/04/28 05:37:01;;;;;;;18.90;10.75;;;6.70;69.30;;;;;;5071822;28;20383;-77
2023/04/28 05:39:27;;;;;;;22.60;11.10;;;6.80;67.90;;;;;;5073672;28;20019;-77
2023/04/28 05:41:53;;;;;;;18.02;9.57;;;6.90;67.40;;;;;;5073336;28;20024;-77
2023/04/28 05:44:18;;;;;;;21.58;11.05;;;7.10;66.80;;;;;;5072770;28;20028;-77
2023/04/28 05:46:44;;;;;;;20.85;11.68;;;7.40;67.30;;;;;;5074069;28;20454;-77
2023/04/28 05:49:10;;;;;;;25.65;14.50;;;7.60;67.20;;;;;;5072732;28;20444;-77
2023/04/28 05:51:36;;;;;;;23.15;12.10;;;7.80;65.60;;;;;;5072747;28;20031;-77
2023/04/28 05:54:02;;;;;;;23.52;13.55;;;8.00;64.60;;;;;;5072609;28;20016;-77
2023/04/28 05:56:28;;;;;;;24.55;15.70;;;8.20;64.20;;;;;;5073891;28;20398;-78
2023/04/28 05:58:53;;;;;;;30.88;16.55;;;8.30;63.60;;;;;;5072352;28;20222;-77
2023/04/28 06:01:19;;;;;;;25.35;12.20;;;8.40;62.70;;;;;;5073796;28;20032;-77
2023/04/28 06:03:45;;;;;;;18.35;10.90;;;8.50;62.70;;;;;;5072670;28;20036;-77
2023/04/28 06:06:11;;;;;;;14.38;8.05;;;8.70;62.10;;;;;;5073689;28;20245;-77
2023/04/28 06:08:37;;;;;;;14.20;8.50;;;8.70;60.40;;;;;;5073991;28;20056;-77
2023/04/28 06:11:03;;;;;;;14.18;8.25;;;8.70;59.70;;;;;;5072842;28;20016;-77
2023/04/28 06:13:29;;;;;;;12.57;8.70;;;8.80;59.40;;;;;;5074098;28;20031;-77
2023/04/28 06:15:55;;;;;;;19.35;9.23;;;8.80;59.80;;;;;;5072674;28;20082;-78
2023/04/28 06:18:22;;;;;;;14.88;7.78;;;9.00;60.40;;;;;;5072698;28;20024;-77
2023/04/28 06:20:47;;;;;;;16.13;8.57;;;9.10;59.40;;;;;;5073505;28;20055;-77
2023/04/28 06:23:13;;;;;;;14.13;7.47;;;9.30;58.20;;;;;;5073153;28;20060;-78
2023/04/28 06:25:39;;;;;;;10.38;6.75;;;9.50;57.80;;;;;;5073260;28;20047;-78
2023/04/28 06:28:06;;;;;;;14.13;6.88;;;9.70;57.30;;;;;;5072700;28;20025;-78
2023/04/28 06:30:31;;;;;;;7.88;6.18;;;9.80;56.50;;;;;;5077261;28;20500;-77
2023/04/28 06:32:57;;;;;;;13.05;6.95;;;10.00;55.10;;;;;;5090506;28;20044;-78
2023/04/28 06:35:23;;;;;;;12.05;7.57;;;10.00;55.60;;;;;;5090748;28;20032;-78
2023/04/28 06:37:48;;;;;;;8.65;6.22;;;10.20;56.10;;;;;;5091887;28;20655;-78
2023/04/28 06:40:14;;;;;;;8.27;6.22;;;10.40;54.50;;;;;;5091949;28;20055;-77
2023/04/28 06:42:40;;;;;;;10.15;6.75;;;10.50;53.60;;;;;;5091765;28;20028;-78
2023/04/28 06:45:06;;;;;;;10.02;6.00;;;10.70;53.90;;;;;;5093864;28;20051;-77
2023/04/28 06:47:31;;;;;;;11.15;6.25;;;10.80;53.10;;;;;;5092487;28;20435;-78
2023/04/28 06:49:57;;;;;;;16.42;7.57;;;11.00;53.20;;;;;;5093686;28;20099;-77
2023/04/28 06:52:23;;;;;;;11.23;5.47;;;11.10;52.40;;;;;;5093702;28;20470;-78
2023/04/28 06:54:50;;;;;;;11.82;5.50;;;11.10;50.40;;;;;;5092389;28;20468;-78
2023/04/28 06:57:16;;;;;;;10.40;5.03;;;11.10;49.60;;;;;;5093587;28;20031;-78
2023/04/28 06:59:43;;;;;;;9.18;5.40;;;11.20;49.20;;;;;;5092306;28;20415;-78
2023/04/28 07:02:09;;;;;;;7.75;5.07;;;11.40;50.90;;;;;;5092434;28;20115;-78
2023/04/28 07:04:35;;;;;;;9.63;5.63;;;11.50;49.80;;;;;;5093502;28;20111;-78
2023/04/28 07:07:01;;;;;;;7.65;4.70;;;11.50;48.40;;;;;;5091690;28;20016;-78
2023/04/28 07:09:26;;;;;;;7.85;5.47;;;11.60;49.10;;;;;;5092236;28;20354;-78
2023/04/28 07:11:52;;;;;;;6.97;4.30;;;11.60;47.10;;;;;;5090523;28;20030;-77
2023/04/28 07:14:17;;;;;;;14.60;11.82;;;11.60;46.30;;;;;;5084533;28;20062;-77
2023/04/28 07:16:43;;;;;;;10.10;5.30;;;11.80;45.90;;;;;;5093535;28;20477;-78
2023/04/28 07:19:09;;;;;;;7.63;4.97;;;11.90;46.80;;;;;;5093390;28;20023;-78
2023/04/28 07:21:34;;;;;;;4.93;4.07;;;12.10;46.80;;;;;;5091087;28;20035;-77
2023/04/28 07:24:00;;;;;;;5.60;5.00;;;12.00;44.40;;;;;;5090079;28;20534;-78
2023/04/28 07:26:26;;;;;;;6.82;4.28;;;12.10;44.10;;;;;;5090250;28;20035;-77
2023/04/28 07:28:52;;;;;;;5.72;3.97;;;12.20;43.40;;;;;;5091536;28;20039;-78
2023/04/28 07:31:17;;;;;;;6.50;4.28;;;12.40;44.20;;;;;;5090145;28;20024;-78
2023/04/28 07:33:43;;;;;;;9.00;4.63;;;12.50;43.70;;;;;;5090135;28;20390;-78
2023/04/28 07:36:09;;;;;;;6.20;4.53;;;12.60;43.90;;;;;;5091603;28;20053;-78
2023/04/28 07:38:35;;;;;;;6.65;4.40;;;12.60;42.90;;;;;;5077668;28;20021;-77
2023/04/28 07:41:02;;;;;;;5.80;4.05;;;12.60;41.90;;;;;;5071280;28;20478;-78
2023/04/28 07:43:28;;;;;;;6.30;3.85;;;12.80;42.70;;;;;;5069765;28;20047;-77
2023/04/28 07:45:54;;;;;;;9.27;4.18;;;12.80;41.90;;;;;;5071243;28;20016;-78
2023/04/28 07:48:19;;;;;;;6.03;3.85;;;13.00;42.90;;;;;;5069945;28;20039;-78
2023/04/28 07:50:45;;;;;;;5.80;4.07;;;13.00;41.70;;;;;;5072971;28;20032;-78
2023/04/28 07:53:11;;;;;;;5.28;3.90;;;13.00;41.30;;;;;;5071991;28;20111;-78
2023/04/28 07:55:37;;;;;;;7.72;4.10;;;13.00;42.20;;;;;;5071768;28;20035;-78
2023/04/28 07:58:03;;;;;;;8.60;4.07;;;13.00;41.40;;;;;;5071792;28;20116;-78
2023/04/28 08:00:28;;;;;;;6.57;4.05;;;13.10;41.30;;;;;;5071906;28;20461;-78
2023/04/28 08:02:55;;;;;;;4.53;3.65;;;13.20;40.10;;;;;;5073022;28;20032;-78
2023/04/28 08:05:21;;;;;;;5.65;4.03;;;13.30;39.60;;;;;;5073300;28;20025;-78
2023/04/28 08:07:46;;;;;;;8.32;4.00;;;13.40;40.80;;;;;;5072998;28;20048;-78
2023/04/28 08:10:12;;;;;;;5.53;4.35;;;13.40;40.70;;;;;;5073108;28;20025;-77
2023/04/28 08:12:39;;;;;;;6.03;3.90;;;13.40;39.90;;;;;;5071892;28;20024;-78
2023/04/28 08:15:05;;;;;;;6.97;4.60;;;13.40;40.00;;;;;;5071800;28;20021;-77
2023/04/28 08:17:31;;;;;;;10.50;4.78;;;13.30;39.90;;;;;;5073586;28;20016;-78
2023/04/28 08:19:57;;;;;;;6.30;3.50;;;13.10;39.60;;;;;;5076793;28;20051;-78
2023/04/28 08:22:23;;;;;;;9.57;4.68;;;13.20;40.40;;;;;;5076688;28;20028;-78
2023/04/28 08:24:48;;;;;;;12.25;5.70;;;13.50;41.80;;;;;;5075307;28;20390;-77
2023/04/28 08:27:14;;;;;;;13.80;5.20;;;13.80;41.10;;;;;;5076673;28;20027;-77
2023/04/28 08:29:40;;;;;;;8.88;4.97;;;13.80;39.90;;;;;;5075322;28;20036;-77
2023/04/28 08:32:06;;;;;;;7.47;3.83;;;13.90;40.20;;;;;;5075394;28;20020;-78
2023/04/28 08:34:32;;;;;;;7.57;4.35;;;14.00;39.60;;;;;;5075117;28;20486;-78
2023/04/28 08:36:58;;;;;;;4.20;3.20;;;13.90;39.00;;;;;;5076397;28;20021;-78
2023/04/28 08:39:25;;;;;;;6.03;4.03;;;14.10;39.30;;;;;;5076488;28;20078;-78
2023/04/28 08:41:51;;;;;;;3.80;3.20;;;14.40;39.70;;;;;;5076538;28;20074;-77
2023/04/28 08:44:17;;;;;;;7.95;4.22;;;14.60;39.80;;;;;;5076322;28;20067;-78
2023/04/28 08:46:44;;;;;;;5.80;4.22;;;14.60;38.70;;;;;;5076379;28;20025;-78
2023/04/28 08:49:17;;;;;;;6.25;4.80;;;14.50;38.60;;;;;;5075089;28;20020;-78
2023/04/28 08:51:54;;;;;;;11.52;4.70;;;14.50;37.70;;;;;;5074885;28;20428;-77
2023/04/28 08:54:22;;;;;;;6.93;4.28;;;14.60;36.60;;;;;;5074913;28;20036;-78
2023/04/28 08:56:48;;;;;;;21.40;6.15;;;14.70;37.00;;;;;;5075996;28;20020;-78
2023/04/28 08:59:14;;;;;;;8.20;3.40;;;14.50;37.50;;;;;;5076265;28;20028;-78
2023/04/28 09:01:40;;;;;;;6.43;4.18;;;14.50;38.20;;;;;;5076040;28;20108;-77
2023/04/28 09:04:06;;;;;;;5.65;3.42;;;14.60;38.60;;;;;;5075949;28;20115;-77
2023/04/28 09:06:33;;;;;;;7.40;4.50;;;14.60;38.60;;;;;;5075912;28;20032;-78
2023/04/28 09:09:21;;;;;;;6.13;4.07;;;14.60;38.40;;;;;;5074051;28;20021;-78
2023/04/28 09:11:50;;;;;;;5.60;4.13;;;14.70;37.80;;;;;;5075861;28;20025;-78
2023/04/28 09:14:16;;;;;;;7.72;4.45;;;14.90;39.40;;;;;;5074499;28;20469;-78
2023/04/28 09:16:41;;;;;;;8.73;4.85;;;14.60;37.90;;;;;;5075624;28;20032;-77
2023/04/28 09:19:07;;;;;;;6.75;5.18;;;14.50;37.50;;;;;;5075666;28;20043;-77
2023/04/28 09:21:44;;;;;;;6.57;4.57;;;14.60;37.70;;;;;;5075704;28;20020;-77
2023/04/28 09:24:10;;;;;;;7.38;4.18;;;14.50;37.60;;;;;;5074285;28;20497;-78
2023/04/28 09:26:49;;;;;;;6.93;3.70;;;14.50;38.70;;;;;;5074261;28;20016;-78
2023/04/28 09:29:15;;;;;;;9.73;3.72;;;14.80;38.20;;;;;;5075247;28;20482;-78
2023/04/28 09:31:42;;;;;;;6.15;4.95;;;15.00;37.70;;;;;;5074313;28;20063;-78
2023/04/28 09:34:08;;;;;;;4.38;3.47;;;14.90;37.30;;;;;;5074894;28;20117;-78
2023/04/28 09:36:33;;;;;;;7.35;4.18;;;15.00;37.60;;;;;;5075368;28;20020;-78
2023/04/28 09:39:00;;;;;;;6.68;4.55;;;15.20;38.70;;;;;;5075338;28;20024;-79
2023/04/28 09:41:40;;;;;;;6.97;4.53;;;15.20;38.00;;;;;;5074092;28;20028;-77
2023/04/28 09:44:17;;;;;;;10.02;4.60;;;15.40;37.80;;;;;;5075251;28;20033;-78
2023/04/28 09:46:44;;;;;;;5.38;3.72;;;15.40;38.90;;;;;;5073984;28;20024;-78
2023/04/28 09:49:11;;;;;;;9.80;4.13;;;15.50;37.30;;;;;;5073947;28;20114;-78
2023/04/28 09:51:36;;;;;;;17.40;4.47;;;15.60;37.40;;;;;;5074938;28;20073;-78
2023/04/28 09:54:03;;;;;;;9.45;5.18;;;15.60;38.60;;;;;;5075079;28;20103;-78
2023/04/28 09:56:29;;;;;;;10.23;4.88;;;15.40;38.40;;;;;;5075009;28;20124;-78
2023/04/28 09:58:59;;;;;;;7.43;4.22;;;15.50;37.60;;;;;;5074964;28;20113;-78
2023/04/28 10:01:29;;;;;;;7.00;5.00;;;15.40;37.40;;;;;;5073640;28;20090;-78
2023/04/28 10:03:56;;;;;;;9.65;5.25;;;15.30;38.50;;;;;;5074789;28;20036;-78
2023/04/28 10:06:22;;;;;;;7.57;4.70;;;15.20;38.70;;;;;;5074815;28;20029;-78
2023/04/28 10:08:50;;;;;;;7.30;4.68;;;15.20;39.20;;;;;;5073501;28;20107;-77
2023/04/28 10:11:16;;;;;;;9.65;4.22;;;15.40;39.50;;;;;;5074718;28;20055;-77
2023/04/28 10:13:43;;;;;;;12.98;4.45;;;15.60;39.80;;;;;;5074453;28;20043;-79
2023/04/28 10:16:09;;;;;;;6.00;3.92;;;15.80;37.80;;;;;;5073373;28;20112;-78
2023/04/28 10:18:36;;;;;;;10.07;3.80;;;15.70;37.10;;;;;;5073345;28;20229;-78
2023/04/28 10:21:03;;;;;;;6.75;4.25;;;15.80;36.70;;;;;;5074552;28;20371;-78
2023/04/28 10:23:57;;;;;;;6.65;4.63;;;15.80;36.30;;;;;;5074371;28;20091;-78
2023/04/28 10:26:46;;;;;;;9.18;4.03;;;15.70;36.00;;;;;;5074360;28;20036;-78
2023/04/28 10:29:12;;;;;;;7.00;4.32;;;15.70;37.70;;;;;;5074243;28;20033;-78
2023/04/28 10:31:37;;;;;;;9.25;4.75;;;15.60;37.10;;;;;;5072823;28;20389;-78
2023/04/28 10:34:22;;;;;;;7.22;4.03;;;15.80;37.60;;;;;;5064765;28;20132;-78
2023/04/28 10:36:51;;;;;;;6.32;4.03;;;15.90;36.70;;;;;;5068018;28;20033;-78
2023/04/28 10:39:16;;;;;;;6.85;4.60;;;16.00;37.00;;;;;;5068155;28;20030;-77
2023/04/28 10:41:44;;;;;;;10.85;4.07;;;15.90;36.30;;;;;;5067716;28;20075;-78
2023/04/28 10:44:27;;;;;;;10.05;4.03;;;15.50;35.10;;;;;;5052309;28;20041;-78
2023/04/28 10:47:02;;;;;;;4.75;3.35;;;15.10;35.90;;;;;;5068098;28;20115;-78
2023/04/28 10:50:05;;;;;;;13.82;4.55;;;15.10;37.30;;;;;;5067864;28;20037;-78
2023/04/28 10:52:40;;;;;;;6.63;3.90;;;15.10;38.10;;;;;;5052186;28;20046;-77
2023/04/28 10:55:38;;;;;;;6.32;3.95;;;15.30;38.60;;;;;;5067624;28;20033;-77
2023/04/28 10:58:16;;;;;;;9.85;4.80;;;15.60;39.00;;;;;;5069750;28;20029;-78
2023/04/28 11:00:44;;;;;;;7.18;4.13;;;15.60;37.90;;;;;;5071139;28;20082;-78
2023/04/28 11:03:41;;;;;;;7.38;3.83;;;15.70;36.90;;;;;;5070901;28;20120;-78
2023/04/28 11:06:27;;;;;;;6.43;3.70;;;15.90;38.30;;;;;;5072016;28;20020;-78
2023/04/28 11:08:55;;;;;;;5.72;4.72;;;15.70;37.00;;;;;;5071060;28;20762;-78
2023/04/28 11:11:24;;;;;;;5.85;3.80;;;15.40;36.80;;;;;;5072169;28;20425;-77
2023/04/28 11:14:11;;;;;;;5.75;4.07;;;15.30;37.50;;;;;;5070896;28;20098;-78
2023/04/28 11:16:58;;;;;;;4.40;3.95;;;15.20;38.00;;;;;;5070717;28;20382;-77
2023/04/28 11:19:28;;;;;;;6.82;3.80;;;15.50;39.90;;;;;;5070961;28;20112;-78
2023/04/28 11:21:56;;;;;;;6.60;3.90;;;15.80;39.40;;;;;;5070383;28;20462;-78
2023/04/28 11:24:24;;;;;;;6.32;4.00;;;15.90;38.10;;;;;;5069210;28;20059;-77
2023/04/28 11:26:51;;;;;;;6.43;3.90;;;16.00;38.10;;;;;;5067458;28;20028;-77
2023/04/28 11:29:17;;;;;;;9.00;4.15;;;16.00;37.10;;;;;;5070436;28;20034;-78
2023/04/28 11:31:50;;;;;;;12.35;4.22;;;15.90;36.50;;;;;;5069783;28;20040;-78
2023/04/28 11:34:20;;;;;;;7.93;4.22;;;15.80;36.40;;;;;;5070268;28;20145;-78
2023/04/28 11:36:46;;;;;;;5.35;3.60;;;15.90;36.70;;;;;;5069187;28;20035;-78
2023/04/28 11:39:12;;;;;;;6.18;4.47;;;16.20;37.70;;;;;;5070207;28;20123;-78
2023/04/28 11:41:43;;;;;;;6.47;3.30;;;16.50;37.70;;;;;;5088271;28;20020;-78
2023/04/28 11:44:20;;;;;;;5.38;3.45;;;16.60;36.60;;;;;;5085738;28;20596;-78
2023/04/28 11:46:54;;;;;;;7.90;4.63;;;17.00;37.90;;;;;;5068805;28;20398;-77
2023/04/28 11:49:27;;;;;;;4.22;3.30;;;17.20;37.50;;;;;;5070342;28;20502;-78
2023/04/28 11:51:54;;;;;;;4.03;3.35;;;17.20;36.80;;;;;;5070041;28;20016;-78
2023/04/28 11:54:21;;;;;;;7.53;4.10;;;17.00;35.60;;;;;;5073081;28;20477;-78
2023/04/28 11:56:46;;;;;;;6.53;3.92;;;17.00;35.00;;;;;;5073204;28;20485;-78
2023/04/28 11:59:13;;;;;;;5.82;3.90;;;16.90;33.80;;;;;;5074440;28;20071;-78
2023/04/28 12:01:48;;;;;;;7.53;4.40;;;16.50;34.20;;;;;;5074504;28;20120;-78
2023/04/28 12:04:46;;;;;;;7.28;4.20;;;16.00;34.70;;;;;;5075125;28;20048;-78
2023/04/28 12:07:16;;;;;;;4.50;3.63;;;15.90;35.80;;;;;;5073732;28;20113;-78
2023/04/28 12:10:07;;;;;;;4.32;3.13;;;16.00;36.10;;;;;;5075429;28;20025;-78
2023/04/28 12:12:32;;;;;;;9.50;4.40;;;16.10;35.30;;;;;;5082091;28;20032;-78
2023/04/28 12:15:06;;;;;;;6.25;4.05;;;16.20;36.10;;;;;;5094486;28;20043;-78
2023/04/28 12:17:41;;;;;;;6.75;4.43;;;16.30;37.10;;;;;;5096099;28;20500;-78
2023/04/28 12:20:09;;;;;;;11.55;3.85;;;16.40;36.40;;;;;;5093822;28;20036;-78
2023/04/28 12:22:49;;;;;;;7.53;3.83;;;16.50;36.40;;;;;;5094614;28;20524;-78
2023/04/28 12:25:17;;;;;;;8.27;4.55;;;16.70;37.40;;;;;;5074624;28;20505;-78
2023/04/28 12:28:02;;;;;;;7.68;4.22;;;16.70;36.70;;;;;;5062602;28;20116;-78
2023/04/28 12:30:33;;;;;;;6.88;4.65;;;16.60;35.30;;;;;;5060782;28;20025;-78
2023/04/28 12:32:58;;;;;;;7.35;4.32;;;16.50;35.30;;;;;;5072466;28;20144;-78
2023/04/28 12:35:26;;;;;;;5.25;3.85;;;16.10;34.90;;;;;;5071506;28;20124;-79
2023/04/28 12:37:54;;;;;;;7.10;4.47;;;16.20;35.20;;;;;;5073181;28;20021;-78
2023/04/28 12:40:19;;;;;;;5.82;3.88;;;16.00;34.90;;;;;;5069343;28;20036;-78
2023/04/28 12:42:45;;;;;;;7.15;3.60;;;16.20;36.10;;;;;;5071218;28;20036;-78
2023/04/28 12:45:11;;;;;;;4.63;3.85;;;16.30;36.30;;;;;;5075324;28;20101;-78